Terminal Aerodrome Forecast
Issued by NWS

Home | Current Version | Previous Version | Text Only | Print | Product List | Glossary On
Versions: 1 2 3 4 5 6 7 8 9 10 11 12 13 14 15 16 17 18 19 20 21
000
FTUS42 KTBW 142300
TAFPIE
TAF
KPIE 142331Z 1500/1524 18007KT P6SM VCSH SCT030 BKN080
     FM150100 VRB05KT P6SM FEW040 BKN100
     FM151400 14007KT P6SM FEW100 SCT250
     FM151800 22006KT P6SM VCTS SCT035CB SCT250=

USA.gov is the U.S. government's official web portal to all federal, state and local government web resources and services.